createdAt,value
2018-09-10T00:00:15.787Z,16.30
2018-09-10T00:02:43.195Z,16.20
2018-09-10T00:05:10.623Z,16.20
2018-09-10T00:07:38.073Z,16.20
2018-09-10T00:10:05.571Z,16.20
2018-09-10T00:12:33.061Z,16.30
2018-09-10T00:15:00.495Z,16.20
2018-09-10T00:17:27.942Z,16.20
2018-09-10T00:19:55.407Z,16.10
2018-09-10T00:22:22.824Z,16.20
2018-09-10T00:24:50.262Z,16.20
2018-09-10T00:27:17.749Z,16.10
2018-09-10T00:29:45.215Z,16.00
2018-09-10T00:32:12.652Z,16.00
2018-09-10T00:34:40.107Z,16.10
2018-09-10T00:37:07.536Z,16.00
2018-09-10T00:39:34.979Z,16.10
2018-09-10T00:42:02.560Z,16.10
2018-09-10T00:44:30.020Z,16.10
2018-09-10T00:46:57.456Z,16.00
2018-09-10T00:49:24.916Z,16.00
2018-09-10T00:51:52.572Z,16.00
2018-09-10T00:54:20.017Z,15.90
2018-09-10T00:56:47.462Z,15.90
2018-09-10T00:59:14.899Z,16.00
2018-09-10T01:01:42.382Z,15.80
2018-09-10T01:04:09.903Z,15.80
2018-09-10T01:06:37.350Z,15.80
2018-09-10T01:09:06.711Z,15.70
2018-09-10T01:11:34.417Z,15.70
2018-09-10T01:14:01.857Z,15.70
2018-09-10T01:16:29.310Z,15.70
2018-09-10T01:18:57.522Z,15.70
2018-09-10T01:21:25.493Z,15.70
2018-09-10T01:23:53.403Z,15.70
2018-09-10T01:26:21.423Z,15.70
2018-09-10T01:28:49.333Z,15.60
2018-09-10T01:31:17.257Z,15.50
2018-09-10T01:33:50.343Z,15.40
2018-09-10T01:36:17.767Z,15.40
2018-09-10T01:38:45.190Z,15.40
2018-09-10T01:41:12.613Z,15.30
2018-09-10T01:43:40.092Z,15.30
2018-09-10T01:46:07.527Z,15.30
2018-09-10T01:48:34.956Z,15.20
2018-09-10T01:51:02.459Z,15.20
2018-09-10T01:53:29.915Z,15.10
2018-09-10T01:55:57.363Z,15.40
2018-09-10T01:58:24.820Z,15.20
2018-09-10T02:00:52.235Z,15.20
2018-09-10T02:03:20.022Z,15.10
2018-09-10T02:05:47.424Z,15.10
2018-09-10T02:08:14.854Z,15.10
2018-09-10T02:10:42.278Z,15.10
2018-09-10T02:13:09.714Z,15.10
2018-09-10T02:15:42.847Z,15.10
2018-09-10T02:18:10.310Z,15.10
2018-09-10T02:20:37.737Z,15.00
2018-09-10T02:23:05.195Z,15.00
2018-09-10T02:25:32.632Z,15.00
2018-09-10T02:28:00.060Z,15.10
2018-09-10T02:30:27.498Z,15.00
2018-09-10T02:32:54.931Z,15.00
2018-09-10T02:35:22.371Z,14.90
2018-09-10T02:37:49.809Z,14.90
2018-09-10T02:40:17.304Z,15.00
2018-09-10T02:42:44.747Z,15.00
2018-09-10T02:45:12.224Z,15.00
2018-09-10T02:47:39.717Z,15.00
2018-09-10T02:50:07.225Z,15.00
2018-09-10T02:52:34.752Z,14.90
2018-09-10T02:55:02.332Z,14.90
2018-09-10T02:57:29.683Z,14.90
2018-09-10T02:59:57.097Z,14.90
2018-09-10T03:02:24.559Z,14.80
2018-09-10T03:04:51.951Z,14.70
2018-09-10T03:07:19.395Z,14.80
2018-09-10T03:09:46.832Z,14.80
2018-09-10T03:12:14.261Z,14.70
2018-09-10T03:14:41.707Z,14.60
2018-09-10T03:17:09.152Z,14.60
2018-09-10T03:19:36.591Z,14.60
2018-09-10T03:22:04.151Z,14.70
2018-09-10T03:24:31.615Z,14.70
2018-09-10T03:26:59.048Z,14.60
2018-09-10T03:29:26.518Z,14.50
2018-09-10T03:31:53.964Z,14.60
2018-09-10T03:34:21.399Z,14.40
2018-09-10T03:36:48.801Z,14.40
2018-09-10T03:39:16.304Z,14.30
2018-09-10T03:41:43.743Z,14.50
2018-09-10T03:44:11.171Z,14.50
2018-09-10T03:46:38.591Z,14.40
2018-09-10T03:49:06.058Z,14.50
2018-09-10T03:51:33.518Z,14.40
2018-09-10T03:54:01.227Z,14.50
2018-09-10T03:56:28.687Z,14.30
2018-09-10T03:58:56.211Z,14.40
2018-09-10T04:01:23.782Z,14.30
2018-09-10T04:03:51.211Z,14.50
2018-09-10T04:06:18.695Z,14.40
2018-09-10T04:08:46.188Z,14.20
2018-09-10T04:11:13.703Z,14.30
2018-09-10T04:13:41.196Z,14.20
2018-09-10T04:16:08.641Z,14.10
2018-09-10T04:18:36.220Z,14.30
2018-09-10T04:21:03.732Z,14.20
2018-09-10T04:23:31.279Z,14.20
2018-09-10T04:25:58.857Z,14.10
2018-09-10T04:28:26.213Z,13.90
2018-09-10T04:30:54.743Z,13.90
2018-09-10T04:33:22.361Z,13.90
2018-09-10T04:35:49.815Z,13.90
2018-09-10T04:38:17.273Z,13.90
2018-09-10T04:40:44.706Z,13.90
2018-09-10T04:43:12.163Z,13.90
2018-09-10T04:45:39.670Z,14.00
2018-09-10T04:48:07.125Z,14.00
2018-09-10T04:50:34.571Z,14.10
2018-09-10T04:53:02.011Z,14.10
2018-09-10T04:55:29.510Z,14.10
2018-09-10T04:57:57.072Z,14.10
2018-09-10T05:00:24.507Z,14.00
2018-09-10T05:02:51.938Z,14.00
2018-09-10T05:05:19.456Z,14.00
2018-09-10T05:07:46.951Z,14.10
2018-09-10T05:10:14.420Z,14.10
2018-09-10T05:12:41.891Z,14.00
2018-09-10T05:15:09.576Z,14.10
2018-09-10T05:17:37.035Z,14.10
2018-09-10T05:20:05.664Z,14.10
2018-09-10T05:22:34.175Z,14.20
2018-09-10T05:25:01.708Z,14.10
2018-09-10T05:27:29.119Z,14.00
2018-09-10T05:29:56.591Z,13.90
2018-09-10T05:32:24.092Z,13.90
2018-09-10T05:34:51.594Z,14.00
2018-09-10T05:37:19.295Z,14.00
2018-09-10T05:39:47.255Z,13.90
2018-09-10T05:42:14.705Z,13.90
2018-09-10T05:44:42.239Z,13.90
2018-09-10T05:47:09.812Z,13.90
2018-09-10T05:49:37.311Z,13.90
2018-09-10T05:52:04.850Z,13.90
2018-09-10T05:54:32.288Z,14.00
2018-09-10T05:56:59.724Z,14.20
2018-09-10T05:59:27.174Z,14.20
2018-09-10T06:01:55.396Z,14.10
2018-09-10T06:04:22.857Z,14.30
2018-09-10T06:06:50.392Z,14.30
2018-09-10T06:09:17.857Z,14.20
2018-09-10T06:11:45.280Z,14.20
2018-09-10T06:14:12.723Z,14.30
2018-09-10T06:16:40.341Z,14.30
2018-09-10T06:19:07.740Z,14.20
2018-09-10T06:21:35.175Z,14.30
2018-09-10T06:24:02.566Z,14.30
2018-09-10T06:26:30.184Z,14.30
2018-09-10T06:28:57.663Z,14.20
2018-09-10T06:31:25.263Z,14.20
2018-09-10T06:33:53.847Z,14.30
2018-09-10T06:36:22.551Z,14.30
2018-09-10T06:38:50.007Z,14.20
2018-09-10T06:41:17.419Z,14.40
2018-09-10T06:43:44.868Z,14.40
2018-09-10T06:46:12.280Z,14.50
2018-09-10T06:48:39.732Z,14.40
2018-09-10T06:51:07.259Z,14.50
2018-09-10T06:53:34.843Z,14.70
2018-09-10T06:56:04.491Z,14.70
2018-09-10T06:58:32.189Z,15.00
2018-09-10T07:00:59.999Z,15.10
2018-09-10T07:03:27.624Z,15.20
2018-09-10T07:05:55.123Z,15.30
2018-09-10T07:08:22.607Z,15.40
2018-09-10T07:10:51.250Z,15.60
2018-09-10T07:13:18.832Z,15.60
2018-09-10T07:15:46.281Z,15.70
2018-09-10T07:18:14.797Z,15.80
2018-09-10T07:20:42.331Z,15.90
2018-09-10T07:23:09.793Z,16.10
2018-09-10T07:25:37.285Z,16.10
2018-09-10T07:28:04.915Z,16.20
2018-09-10T07:30:32.372Z,16.40
2018-09-10T07:32:59.768Z,16.50
2018-09-10T07:35:27.203Z,16.50
2018-09-10T07:37:54.663Z,16.60
2018-09-10T07:40:22.112Z,16.70
2018-09-10T07:42:49.640Z,16.80
2018-09-10T07:45:17.105Z,16.90
2018-09-10T07:47:44.673Z,16.90
2018-09-10T07:50:12.176Z,17.10
2018-09-10T07:52:39.611Z,17.10
2018-09-10T07:55:07.057Z,17.20
2018-09-10T07:57:35.057Z,17.60
2018-09-10T08:00:02.591Z,17.50
2018-09-10T08:02:30.249Z,17.70
2018-09-10T08:04:57.721Z,17.70
2018-09-10T08:07:25.686Z,17.70
2018-09-10T08:09:53.394Z,17.70
2018-09-10T08:12:20.876Z,17.80
2018-09-10T08:14:48.289Z,17.70
2018-09-10T08:17:15.728Z,17.90
2018-09-10T08:19:43.267Z,18.10
2018-09-10T08:22:10.703Z,18.40
2018-09-10T08:24:38.136Z,18.70
2018-09-10T08:27:05.578Z,18.90
2018-09-10T08:29:33.028Z,19.10
2018-09-10T08:32:00.718Z,19.10
2018-09-10T08:34:28.157Z,19.10
2018-09-10T08:36:55.587Z,18.90
2018-09-10T08:39:23.049Z,19.00
2018-09-10T08:41:50.558Z,19.00
2018-09-10T08:44:18.178Z,19.00
2018-09-10T08:46:45.624Z,19.00
2018-09-10T08:49:13.045Z,19.20
2018-09-10T08:51:40.515Z,19.10
2018-09-10T08:54:08.061Z,19.10
2018-09-10T08:56:35.424Z,19.30
2018-09-10T08:59:02.909Z,19.30
2018-09-10T09:01:30.340Z,19.20
2018-09-10T09:03:57.994Z,19.30
2018-09-10T09:06:25.832Z,19.40
2018-09-10T09:08:53.284Z,19.40
2018-09-10T09:11:20.711Z,19.70
2018-09-10T09:13:48.139Z,19.70
2018-09-10T09:16:15.591Z,19.70
2018-09-10T09:18:43.009Z,19.70
2018-09-10T09:21:11.371Z,19.80
2018-09-10T09:23:39.034Z,20.10
2018-09-10T09:26:06.507Z,20.10
2018-09-10T09:28:34.676Z,20.20
2018-09-10T09:31:02.105Z,20.50
2018-09-10T09:33:29.580Z,20.70
2018-09-10T09:36:02.692Z,21.00
2018-09-10T09:38:35.915Z,21.10
2018-09-10T09:41:09.265Z,20.90
2018-09-10T09:43:42.254Z,20.80
2018-09-10T09:46:12.007Z,21.00
2018-09-10T09:48:39.423Z,21.10
2018-09-10T09:51:06.904Z,21.40
2018-09-10T09:53:34.794Z,21.30
2018-09-10T09:56:02.243Z,21.50
2018-09-10T09:58:29.651Z,21.60
2018-09-10T10:01:02.687Z,21.70
2018-09-10T10:03:35.643Z,21.60
2018-09-10T10:06:03.110Z,21.50
2018-09-10T10:08:30.551Z,21.40
2018-09-10T10:10:58.040Z,21.30
2018-09-10T10:13:25.447Z,21.50
2018-09-10T10:15:53.506Z,21.40
2018-09-10T10:18:20.931Z,21.50
2018-09-10T10:20:48.401Z,21.50
2018-09-10T10:23:16.179Z,21.50
2018-09-10T10:25:43.639Z,21.50
2018-09-10T10:28:11.093Z,21.50
2018-09-10T10:30:38.499Z,21.50
2018-09-10T10:33:06.196Z,21.50
2018-09-10T10:35:33.664Z,21.60
2018-09-10T10:38:01.102Z,21.60
2018-09-10T10:40:28.503Z,21.70
2018-09-10T10:42:55.903Z,21.80
2018-09-10T10:45:23.307Z,22.00
2018-09-10T10:47:50.718Z,22.20
2018-09-10T10:50:18.185Z,22.30
2018-09-10T10:52:45.698Z,22.40
2018-09-10T10:55:13.124Z,22.50
2018-09-10T10:57:40.922Z,22.70
2018-09-10T11:00:08.360Z,22.80
2018-09-10T11:02:35.787Z,23.20
2018-09-10T11:05:03.234Z,23.60
2018-09-10T11:07:30.644Z,24.40
2018-09-10T11:09:58.075Z,25.10
2018-09-10T11:12:25.497Z,25.50
2018-09-10T11:14:52.924Z,26.00
2018-09-10T11:17:20.332Z,26.40
2018-09-10T11:19:47.751Z,26.70
2018-09-10T11:22:15.199Z,27.20
2018-09-10T11:24:42.616Z,27.80
2018-09-10T11:27:10.092Z,29.00
2018-09-10T11:29:37.551Z,30.10
2018-09-10T11:32:04.980Z,31.40
2018-09-10T11:34:32.470Z,32.00
2018-09-10T11:36:59.827Z,33.10
2018-09-10T11:39:27.302Z,33.90
2018-09-10T11:41:54.748Z,34.60
2018-09-10T11:44:22.152Z,35.00
2018-09-10T11:46:49.604Z,35.30
2018-09-10T11:49:17.035Z,35.50
2018-09-10T11:51:44.526Z,35.90
2018-09-10T11:54:11.971Z,36.30
2018-09-10T11:56:39.379Z,36.70
2018-09-10T11:59:06.847Z,36.90
2018-09-10T12:01:34.284Z,36.80
2018-09-10T12:04:01.804Z,37.00
2018-09-10T12:06:29.256Z,37.00
2018-09-10T12:08:56.719Z,36.70
2018-09-10T12:11:24.163Z,36.40
2018-09-10T12:13:51.676Z,35.60
2018-09-10T12:16:19.119Z,35.50
2018-09-10T12:18:46.610Z,35.10
2018-09-10T12:21:14.027Z,34.90
2018-09-10T12:23:41.560Z,34.70
2018-09-10T12:26:10.091Z,34.40
2018-09-10T12:28:37.559Z,33.70
2018-09-10T12:31:05.039Z,33.20
2018-09-10T12:33:32.451Z,32.90
2018-09-10T12:35:59.915Z,32.60
2018-09-10T12:38:27.331Z,32.90
2018-09-10T12:40:54.825Z,33.00
2018-09-10T12:43:23.415Z,32.80
2018-09-10T12:45:50.823Z,32.20
2018-09-10T12:48:18.258Z,31.70
2018-09-10T12:50:45.695Z,31.40
2018-09-10T12:53:13.456Z,31.40
2018-09-10T12:55:40.916Z,31.40
2018-09-10T12:58:08.364Z,31.30
2018-09-10T13:00:35.800Z,31.60
2018-09-10T13:03:03.281Z,32.20
2018-09-10T13:05:30.821Z,32.30
2018-09-10T13:07:58.640Z,32.70
2018-09-10T13:10:26.161Z,32.60
2018-09-10T13:12:53.886Z,31.80
2018-09-10T13:15:21.311Z,31.10
2018-09-10T13:17:48.761Z,30.40
2018-09-10T13:20:17.177Z,29.80
2018-09-10T13:22:44.783Z,29.20
2018-09-10T13:25:12.259Z,29.10
2018-09-10T13:27:40.296Z,28.80
2018-09-10T13:30:08.208Z,28.60
2018-09-10T13:32:35.884Z,28.40
2018-09-10T13:35:03.455Z,28.40
2018-09-10T13:37:31.704Z,28.20
2018-09-10T13:39:59.503Z,28.10
2018-09-10T13:42:27.249Z,28.00
2018-09-10T13:44:54.687Z,27.80
2018-09-10T13:47:22.558Z,27.80
2018-09-10T13:49:51.960Z,27.70
2018-09-10T13:52:19.657Z,27.50
2018-09-10T13:54:47.205Z,27.30
2018-09-10T13:57:14.630Z,27.00
2018-09-10T13:59:44.443Z,27.00
2018-09-10T14:02:11.982Z,27.20
2018-09-10T14:04:39.664Z,27.40
2018-09-10T14:07:07.204Z,27.70
2018-09-10T14:09:34.847Z,28.30
2018-09-10T14:12:03.012Z,28.40
2018-09-10T14:14:31.410Z,28.20
2018-09-10T14:16:58.984Z,28.20
2018-09-10T14:19:26.532Z,28.20
2018-09-10T14:21:54.333Z,28.40
2018-09-10T14:24:21.788Z,28.30
2018-09-10T14:26:49.255Z,28.40
2018-09-10T14:29:16.959Z,28.30
2018-09-10T14:31:44.441Z,28.00
2018-09-10T14:34:11.915Z,27.80
2018-09-10T14:36:39.580Z,27.70
2018-09-10T14:39:07.703Z,27.50
2018-09-10T14:41:35.203Z,27.20
2018-09-10T14:44:02.680Z,27.10
2018-09-10T14:46:30.121Z,27.00
2018-09-10T14:48:57.631Z,26.80
2018-09-10T14:51:25.059Z,26.70
2018-09-10T14:53:53.063Z,26.50
2018-09-10T14:56:20.618Z,26.30
2018-09-10T14:58:48.203Z,26.20
2018-09-10T15:01:15.743Z,26.20
2018-09-10T15:03:43.272Z,26.30
2018-09-10T15:06:10.843Z,26.20
2018-09-10T15:08:38.427Z,26.10
2018-09-10T15:11:05.992Z,26.20
2018-09-10T15:13:33.555Z,26.20
2018-09-10T15:16:01.038Z,26.30
2018-09-10T15:18:28.579Z,26.20
2018-09-10T15:20:56.068Z,26.20
2018-09-10T15:23:24.367Z,26.30
2018-09-10T15:25:52.917Z,26.30
2018-09-10T15:28:20.519Z,26.20
2018-09-10T15:30:48.223Z,26.20
2018-09-10T15:33:15.736Z,26.20
2018-09-10T15:35:43.315Z,26.10
2018-09-10T15:38:10.885Z,25.90
2018-09-10T15:40:40.593Z,26.00
2018-09-10T15:43:08.058Z,25.90
2018-09-10T15:45:36.518Z,25.80
2018-09-10T15:48:03.995Z,25.70
2018-09-10T15:50:33.953Z,25.90
2018-09-10T15:53:01.372Z,25.80
2018-09-10T15:55:28.876Z,25.90
2018-09-10T15:57:56.648Z,25.80
2018-09-10T16:00:24.099Z,25.60
2018-09-10T16:02:51.519Z,25.60
2018-09-10T16:05:18.990Z,25.50
2018-09-10T16:07:46.496Z,25.30
2018-09-10T16:10:13.944Z,25.40
2018-09-10T16:12:41.363Z,25.40
2018-09-10T16:15:08.803Z,25.40
2018-09-10T16:17:36.258Z,25.50
2018-09-10T16:20:03.928Z,25.60
2018-09-10T16:22:31.355Z,25.30
2018-09-10T16:24:58.823Z,25.40
2018-09-10T16:27:26.720Z,25.50
2018-09-10T16:29:54.184Z,25.50
2018-09-10T16:32:21.653Z,25.60
2018-09-10T16:34:49.127Z,25.40
2018-09-10T16:37:16.607Z,25.30
2018-09-10T16:39:44.044Z,25.40
2018-09-10T16:42:12.257Z,25.20
2018-09-10T16:44:39.966Z,25.20
2018-09-10T16:47:07.530Z,25.10
2018-09-10T16:49:35.053Z,25.00
2018-09-10T16:52:02.711Z,24.90
2018-09-10T16:54:30.182Z,24.90
2018-09-10T16:56:57.575Z,24.90
2018-09-10T16:59:25.018Z,24.90
2018-09-10T17:01:52.568Z,25.00
2018-09-10T17:04:20.271Z,25.00
2018-09-10T17:06:47.783Z,24.80
2018-09-10T17:09:15.340Z,24.80
2018-09-10T17:11:42.954Z,24.60
2018-09-10T17:14:10.407Z,24.50
2018-09-10T17:16:37.952Z,24.50
2018-09-10T17:19:08.942Z,24.60
2018-09-10T17:21:36.574Z,24.40
2018-09-10T17:24:04.051Z,24.30
2018-09-10T17:26:31.592Z,24.30
2018-09-10T17:29:13.818Z,24.20
2018-09-10T17:31:41.854Z,24.20
2018-09-10T17:34:09.765Z,24.10
2018-09-10T17:36:37.826Z,24.00
2018-09-10T17:39:07.122Z,24.00
2018-09-10T17:41:34.544Z,23.90
2018-09-10T17:44:02.649Z,23.80
2018-09-10T17:46:30.547Z,23.60
2018-09-10T17:48:58.002Z,23.50
2018-09-10T17:51:25.416Z,23.50
2018-09-10T17:53:52.854Z,23.60
2018-09-10T17:56:20.596Z,23.50
2018-09-10T17:58:48.076Z,23.40
2018-09-10T18:01:15.522Z,23.30
2018-09-10T18:03:43.116Z,23.30
2018-09-10T18:06:10.556Z,23.10
2018-09-10T18:08:37.975Z,23.20
2018-09-10T18:11:05.445Z,23.20
2018-09-10T18:13:33.995Z,23.20
2018-09-10T18:16:01.480Z,23.10
2018-09-10T18:18:29.036Z,23.20
2018-09-10T18:20:56.691Z,23.10
2018-09-10T18:23:24.471Z,23.20
2018-09-10T18:25:51.892Z,23.20
2018-09-10T18:28:19.355Z,23.10
2018-09-10T18:30:46.838Z,23.00
2018-09-10T18:33:14.335Z,23.00
2018-09-10T18:35:41.781Z,23.00
2018-09-10T18:38:09.223Z,23.00
2018-09-10T18:40:36.683Z,22.80
2018-09-10T18:43:04.192Z,22.80
2018-09-10T18:45:31.621Z,22.80
2018-09-10T18:47:59.047Z,22.90
2018-09-10T18:50:26.609Z,22.70
2018-09-10T18:52:54.256Z,22.60
2018-09-10T18:55:22.015Z,22.60
2018-09-10T18:57:49.754Z,22.60
2018-09-10T19:00:17.196Z,22.60
2018-09-10T19:02:45.005Z,22.50
2018-09-10T19:05:12.576Z,22.50
2018-09-10T19:07:40.286Z,22.40
2018-09-10T19:10:09.758Z,22.40
2018-09-10T19:12:37.676Z,22.40
2018-09-10T19:15:05.651Z,22.40
2018-09-10T19:17:33.615Z,22.30
2018-09-10T19:20:01.273Z,22.20
2018-09-10T19:22:28.982Z,22.20
2018-09-10T19:24:56.880Z,22.10
2018-09-10T19:27:24.555Z,22.10
2018-09-10T19:29:52.340Z,22.00
2018-09-10T19:32:20.190Z,21.90
2018-09-10T19:34:47.737Z,22.00
2018-09-10T19:37:15.247Z,21.80
2018-09-10T19:39:43.077Z,21.90
2018-09-10T19:42:10.797Z,21.80
2018-09-10T19:44:39.061Z,21.80
2018-09-10T19:47:07.019Z,21.80
2018-09-10T19:49:34.868Z,21.70
2018-09-10T19:52:03.084Z,21.60
2018-09-10T19:54:31.130Z,21.60
2018-09-10T19:56:59.077Z,21.60
2018-09-10T19:59:27.054Z,21.60
2018-09-10T20:01:55.299Z,21.50
2018-09-10T20:04:23.075Z,21.60
2018-09-10T20:06:50.536Z,21.60
2018-09-10T20:09:18.447Z,21.50
2018-09-10T20:11:46.442Z,21.40
2018-09-10T20:14:15.200Z,21.50
2018-09-10T20:16:43.850Z,21.40
2018-09-10T20:19:12.132Z,21.40
2018-09-10T20:21:39.747Z,21.30
2018-09-10T20:24:07.469Z,21.20
2018-09-10T20:26:35.004Z,21.20
2018-09-10T20:29:02.508Z,21.20
2018-09-10T20:31:30.025Z,21.20
2018-09-10T20:34:03.206Z,21.10
2018-09-10T20:36:30.629Z,21.00
2018-09-10T20:38:58.112Z,20.90
2018-09-10T20:41:25.560Z,20.90
2018-09-10T20:43:53.067Z,20.90
2018-09-10T20:46:20.543Z,20.90
2018-09-10T20:48:48.792Z,20.80
2018-09-10T20:51:16.212Z,20.80
2018-09-10T20:53:43.747Z,20.80
2018-09-10T20:56:11.251Z,20.80
2018-09-10T20:58:38.706Z,20.60
2018-09-10T21:01:06.198Z,20.70
2018-09-10T21:03:33.591Z,20.60
2018-09-10T21:06:04.475Z,20.50
2018-09-10T21:08:31.903Z,20.50
2018-09-10T21:10:59.438Z,20.40
2018-09-10T21:13:26.873Z,20.40
2018-09-10T21:15:54.399Z,20.30
2018-09-10T21:18:21.875Z,20.20
2018-09-10T21:20:49.294Z,20.10
2018-09-10T21:23:18.767Z,20.20
2018-09-10T21:25:46.369Z,20.10
2018-09-10T21:28:13.784Z,20.00
2018-09-10T21:30:41.265Z,20.10
2018-09-10T21:33:08.742Z,20.10
2018-09-10T21:35:36.188Z,20.00
2018-09-10T21:38:03.717Z,20.00
2018-09-10T21:40:31.292Z,19.90
2018-09-10T21:42:58.752Z,19.80
2018-09-10T21:45:26.323Z,19.70
2018-09-10T21:47:53.857Z,19.80
2018-09-10T21:50:21.284Z,19.70
2018-09-10T21:52:48.695Z,19.70
2018-09-10T21:55:16.166Z,19.70
2018-09-10T21:57:43.576Z,19.70
2018-09-10T22:00:11.280Z,19.70
2018-09-10T22:02:38.687Z,19.50
2018-09-10T22:05:06.899Z,19.60
2018-09-10T22:07:34.343Z,19.60
2018-09-10T22:10:01.781Z,19.60
2018-09-10T22:12:29.240Z,19.60
2018-09-10T22:14:56.683Z,19.40
2018-09-10T22:17:24.124Z,19.50
2018-09-10T22:19:51.643Z,19.50
2018-09-10T22:22:19.115Z,19.50
2018-09-10T22:24:46.640Z,19.30
2018-09-10T22:27:14.069Z,19.40
2018-09-10T22:29:41.686Z,19.30
2018-09-10T22:32:09.161Z,19.20
2018-09-10T22:34:36.634Z,19.30
2018-09-10T22:37:04.309Z,19.30
2018-09-10T22:39:31.791Z,19.10
2018-09-10T22:41:59.447Z,19.10
2018-09-10T22:44:28.138Z,19.10
2018-09-10T22:46:56.597Z,19.10
2018-09-10T22:49:24.401Z,19.10
2018-09-10T22:51:52.044Z,19.10
2018-09-10T22:54:19.572Z,19.10
2018-09-10T22:56:47.008Z,18.90
2018-09-10T22:59:14.487Z,18.80
2018-09-10T23:01:42.017Z,18.90
2018-09-10T23:04:09.491Z,18.80
2018-09-10T23:06:36.985Z,18.80
2018-09-10T23:09:06.126Z,18.80
2018-09-10T23:11:33.567Z,18.80
2018-09-10T23:14:00.979Z,18.80
2018-09-10T23:16:28.519Z,18.90
2018-09-10T23:18:55.928Z,18.80
2018-09-10T23:21:23.379Z,18.70
2018-09-10T23:23:50.872Z,18.80
2018-09-10T23:26:18.362Z,18.80
2018-09-10T23:28:45.843Z,18.60
2018-09-10T23:31:13.291Z,18.70
2018-09-10T23:33:40.753Z,18.50
2018-09-10T23:36:08.700Z,18.40
2018-09-10T23:41:04.416Z,18.40
2018-09-10T23:43:32.485Z,18.30
2018-09-10T23:46:00.306Z,18.30
2018-09-10T23:48:28.059Z,18.30
2018-09-10T23:50:55.794Z,18.20
2018-09-10T23:53:23.239Z,18.20
2018-09-10T23:55:50.728Z,18.20
2018-09-10T23:58:18.575Z,18.20
